KMKG/MKG METAR and TAF weather

Enter ICAO airport designator
Station Type Date Time Source
KMKG METAR 2019/02/23 22:55 UTC NOAA

KMKG 232255Z 10008KT 7SM OVC020 02/M02 A2979 RMK AO2 SLP093 T00221017


Station Type Date Time Source
KMKG Decoded METAR 2019/02/23 22:55 UTC NOAA

MUSKEGON COUNTY AIRPORT, MI, United States (KMKG) 43-10N 086-14W 191M
Feb 23, 2019 - 05:55 PM EST / 2019.02.23 2255 UTC
Wind: from the E (100 degrees) at 9 MPH (8 KT):0
Visibility: 7 mile(s):0
Sky conditions: overcast
Temperature: 36.0 F (2.2 C)
Dew Point: 28.9 F (-1.7 C)
Relative Humidity: 75%
Pressure (altimeter): 29.79 in. Hg (1008 hPa)
ob: KMKG 232255Z 10008KT 7SM OVC020 02/M02 A2979 RMK AO2 SLP093 T00221017
cycle: 23

Station Type Date Time Source
KMKG TAF 2019/02/23 19:36 UTC NOAA

TAF
AMD KMKG 231833Z 2319/2418 10011KT 2SM RA OVC025
FM232000 09011KT 5SM -SHRA BR OVC015
FM240100 11013KT 3SM -SHRA BR VCTS OVC010CB
FM240300 11015KT 1SM -SHRA BR OVC008
FM240500 13015G31KT 1 1/2SM SHRA OVC003 WS020/15045KT
FM240600 15014G35KT 2SM -SHRA BR OVC003 WS020/18050KT
FM240800 18013G32KT 2SM -SHRA BR OVC010 WS020/22045KT
FM241300 21018G35KT 2SM -SN OVC010 WS020/22045KT
FM241700 27025G42KT 1SM -SN BLSN OVC010 WS020/26045KT


Example: see airport list